Witless Bay, Canada
Current Conditions -  °F | °C
As of 11:00 PM on Monday 20 Oct 2014 (Local Time) from CYYT Reporting Station
Broken Clouds Broken Clouds  
Wind Chill: 40°   Ceiling: 4500
Heat Index: 48°   Visibility: 15mi
Dew Point: 41°   Wind: 29mph
Humidity: 76%   Direction: 260°W
Pressure: 29.72"   Gusts: 38mph
Location:  47.28°N, 52.83°W
Report Text: CYYT 210100Z 26025G33KT 15SM BKN045 09/05 A2972 RMK SC7 OCNL -SHRA SLP065
Loading
Personal Weather Stations






























Interactive Weather Map
Tropical Storm Tracking
New forecast layout! Learn more

10-Day Weather Forecast

Advertisements
Track Severe Weather on mobile